sensor_id;sensor_type;location;lat;lon;timestamp;pressure;altitude;pressure_sealevel;temperature;humidity
76011;BME280;64701;43.536;1.478;2023-06-05T00:00:43;99391.19;;;19.81;72.21
76011;BME280;64701;43.536;1.478;2023-06-05T00:03:08;99392.22;;;19.75;73.33
76011;BME280;64701;43.536;1.478;2023-06-05T00:05:34;99406.13;;;19.72;73.83
76011;BME280;64701;43.536;1.478;2023-06-05T00:07:59;99399.66;;;19.68;74.16
76011;BME280;64701;43.536;1.478;2023-06-05T00:10:25;99395.28;;;19.62;74.42
76011;BME280;64701;43.536;1.478;2023-06-05T00:12:50;99397.94;;;19.57;75.25
76011;BME280;64701;43.536;1.478;2023-06-05T00:15:15;99391.81;;;19.40;76.74
76011;BME280;64701;43.536;1.478;2023-06-05T00:17:40;99392.63;;;19.40;76.05
76011;BME280;64701;43.536;1.478;2023-06-05T00:20:07;99402.03;;;19.43;76.44
76011;BME280;64701;43.536;1.478;2023-06-05T00:22:34;99395.63;;;19.44;75.12
76011;BME280;64701;43.536;1.478;2023-06-05T00:25:00;99389.19;;;19.45;75.88
76011;BME280;64701;43.536;1.478;2023-06-05T00:27:25;99398.91;;;19.46;75.97
76011;BME280;64701;43.536;1.478;2023-06-05T00:29:50;99401.88;;;19.49;74.97
76011;BME280;64701;43.536;1.478;2023-06-05T00:32:16;99395.69;;;19.49;75.58
76011;BME280;64701;43.536;1.478;2023-06-05T00:34:41;99394.09;;;19.48;75.35
76011;BME280;64701;43.536;1.478;2023-06-05T00:37:06;99392.94;;;19.44;76.69
76011;BME280;64701;43.536;1.478;2023-06-05T00:39:32;99395.06;;;19.42;76.71
76011;BME280;64701;43.536;1.478;2023-06-05T00:41:57;99393.97;;;19.43;75.49
76011;BME280;64701;43.536;1.478;2023-06-05T00:44:23;99396.22;;;19.46;75.18
76011;BME280;64701;43.536;1.478;2023-06-05T00:46:48;99402.56;;;19.40;76.88
76011;BME280;64701;43.536;1.478;2023-06-05T00:49:15;99405.25;;;19.40;76.63
76011;BME280;64701;43.536;1.478;2023-06-05T00:51:41;99400.94;;;19.39;76.67
76011;BME280;64701;43.536;1.478;2023-06-05T00:54:06;99401.13;;;19.32;78.35
76011;BME280;64701;43.536;1.478;2023-06-05T00:56:32;99405.94;;;19.30;77.79
76011;BME280;64701;43.536;1.478;2023-06-05T00:59:00;99411.03;;;19.32;77.03
76011;BME280;64701;43.536;1.478;2023-06-05T01:01:26;99404.88;;;19.31;77.00
76011;BME280;64701;43.536;1.478;2023-06-05T01:03:51;99399.00;;;19.34;76.49
76011;BME280;64701;43.536;1.478;2023-06-05T01:06:17;99399.78;;;19.30;77.79
76011;BME280;64701;43.536;1.478;2023-06-05T01:08:44;99397.56;;;19.27;77.56
76011;BME280;64701;43.536;1.478;2023-06-05T01:13:40;99391.63;;;19.25;77.85
76011;BME280;64701;43.536;1.478;2023-06-05T01:16:08;99398.31;;;19.22;78.35
76011;BME280;64701;43.536;1.478;2023-06-05T01:18:34;99391.34;;;19.21;78.48
76011;BME280;64701;43.536;1.478;2023-06-05T01:21:00;99391.03;;;19.17;78.83
76011;BME280;64701;43.536;1.478;2023-06-05T01:23:26;99391.28;;;19.16;79.97
76011;BME280;64701;43.536;1.478;2023-06-05T01:25:56;99396.34;;;19.12;79.70
76011;BME280;64701;43.536;1.478;2023-06-05T01:28:26;99391.97;;;19.06;81.70
76011;BME280;64701;43.536;1.478;2023-06-05T01:31:15;99389.72;;;18.98;82.47
76011;BME280;64701;43.536;1.478;2023-06-05T01:33:43;99394.75;;;18.95;81.76
76011;BME280;64701;43.536;1.478;2023-06-05T01:36:12;99393.16;;;18.94;82.49
76011;BME280;64701;43.536;1.478;2023-06-05T01:38:38;99391.53;;;18.93;82.11
76011;BME280;64701;43.536;1.478;2023-06-05T01:41:05;99391.72;;;18.86;83.87
76011;BME280;64701;43.536;1.478;2023-06-05T01:43:31;99397.56;;;18.83;84.64
76011;BME280;64701;43.536;1.478;2023-06-05T01:45:57;99396.56;;;18.89;81.79
76011;BME280;64701;43.536;1.478;2023-06-05T01:48:24;99393.09;;;18.89;82.82
76011;BME280;64701;43.536;1.478;2023-06-05T01:50:59;99403.44;;;18.80;85.57
76011;BME280;64701;43.536;1.478;2023-06-05T01:53:25;99393.75;;;18.79;85.42
76011;BME280;64701;43.536;1.478;2023-06-05T01:55:50;99399.88;;;18.74;85.77
76011;BME280;64701;43.536;1.478;2023-06-05T01:58:22;99402.22;;;18.71;87.06
76011;BME280;64701;43.536;1.478;2023-06-05T02:00:47;99408.97;;;18.73;85.54
76011;BME280;64701;43.536;1.478;2023-06-05T02:03:13;99397.13;;;18.69;86.67
76011;BME280;64701;43.536;1.478;2023-06-05T02:05:41;99402.97;;;18.66;87.00
76011;BME280;64701;43.536;1.478;2023-06-05T02:08:06;99404.53;;;18.62;88.04
76011;BME280;64701;43.536;1.478;2023-06-05T02:10:34;99406.78;;;18.70;84.61
76011;BME280;64701;43.536;1.478;2023-06-05T02:13:00;99414.03;;;18.70;86.76
76011;BME280;64701;43.536;1.478;2023-06-05T02:15:25;99411.81;;;18.67;87.08
76011;BME280;64701;43.536;1.478;2023-06-05T02:17:51;99400.03;;;18.68;86.22
76011;BME280;64701;43.536;1.478;2023-06-05T02:20:19;99397.59;;;18.66;86.41
76011;BME280;64701;43.536;1.478;2023-06-05T02:22:44;99401.59;;;18.64;87.37
76011;BME280;64701;43.536;1.478;2023-06-05T02:25:10;99398.34;;;18.62;87.39
76011;BME280;64701;43.536;1.478;2023-06-05T02:27:36;99402.72;;;18.68;85.68
76011;BME280;64701;43.536;1.478;2023-06-05T02:30:01;99394.09;;;18.66;86.33
76011;BME280;64701;43.536;1.478;2023-06-05T02:32:26;99387.84;;;18.60;87.88
76011;BME280;64701;43.536;1.478;2023-06-05T02:34:54;99390.31;;;18.62;86.98
76011;BME280;64701;43.536;1.478;2023-06-05T02:37:22;99392.97;;;18.62;86.72
76011;BME280;64701;43.536;1.478;2023-06-05T02:39:48;99386.63;;;18.68;84.25
76011;BME280;64701;43.536;1.478;2023-06-05T02:42:13;99396.31;;;18.69;85.74
76011;BME280;64701;43.536;1.478;2023-06-05T02:44:38;99386.69;;;18.73;83.11
76011;BME280;64701;43.536;1.478;2023-06-05T02:47:03;99385.34;;;18.70;84.87
76011;BME280;64701;43.536;1.478;2023-06-05T02:49:29;99390.44;;;18.72;83.73
76011;BME280;64701;43.536;1.478;2023-06-05T02:51:54;99385.88;;;18.72;84.26
76011;BME280;64701;43.536;1.478;2023-06-05T02:54:20;99390.44;;;18.72;84.18
76011;BME280;64701;43.536;1.478;2023-06-05T02:56:45;99392.00;;;18.68;84.19
76011;BME280;64701;43.536;1.478;2023-06-05T02:59:11;99390.94;;;18.69;82.51
76011;BME280;64701;43.536;1.478;2023-06-05T03:01:37;99387.22;;;18.70;82.27
76011;BME280;64701;43.536;1.478;2023-06-05T03:04:03;99396.84;;;18.71;81.60
76011;BME280;64701;43.536;1.478;2023-06-05T03:06:29;99381.03;;;18.69;82.26
76011;BME280;64701;43.536;1.478;2023-06-05T03:08:58;99395.19;;;18.65;84.06
76011;BME280;64701;43.536;1.478;2023-06-05T03:11:24;99389.25;;;18.63;83.51
76011;BME280;64701;43.536;1.478;2023-06-05T03:13:50;99402.00;;;18.56;85.69
76011;BME280;64701;43.536;1.478;2023-06-05T03:16:15;99398.19;;;18.52;87.02
76011;BME280;64701;43.536;1.478;2023-06-05T03:18:42;99401.34;;;18.49;85.96
76011;BME280;64701;43.536;1.478;2023-06-05T03:21:07;99398.09;;;18.47;86.74
76011;BME280;64701;43.536;1.478;2023-06-05T03:23:35;99403.13;;;18.43;87.21
76011;BME280;64701;43.536;1.478;2023-06-05T03:26:00;99395.53;;;18.35;89.31
76011;BME280;64701;43.536;1.478;2023-06-05T03:28:25;99393.63;;;18.35;86.99
76011;BME280;64701;43.536;1.478;2023-06-05T03:30:50;99395.81;;;18.39;87.16
76011;BME280;64701;43.536;1.478;2023-06-05T03:33:16;99404.94;;;18.38;87.94
76011;BME280;64701;43.536;1.478;2023-06-05T03:35:44;99404.28;;;18.30;89.65
76011;BME280;64701;43.536;1.478;2023-06-05T03:38:12;99402.41;;;18.31;88.90
76011;BME280;64701;43.536;1.478;2023-06-05T03:40:38;99395.09;;;18.26;89.27
76011;BME280;64701;43.536;1.478;2023-06-05T03:43:06;99389.16;;;18.24;89.07
76011;BME280;64701;43.536;1.478;2023-06-05T03:45:33;99395.03;;;18.21;89.73
76011;BME280;64701;43.536;1.478;2023-06-05T03:47:59;99390.50;;;18.22;89.10
76011;BME280;64701;43.536;1.478;2023-06-05T03:50:25;99394.78;;;18.23;88.29
76011;BME280;64701;43.536;1.478;2023-06-05T03:52:50;99395.56;;;18.23;89.15
76011;BME280;64701;43.536;1.478;2023-06-05T03:55:18;99396.09;;;18.20;89.34
76011;BME280;64701;43.536;1.478;2023-06-05T03:57:43;99400.94;;;18.23;88.44
76011;BME280;64701;43.536;1.478;2023-06-05T04:00:09;99400.47;;;18.26;87.66
76011;BME280;64701;43.536;1.478;2023-06-05T04:02:35;99399.88;;;18.24;87.50
76011;BME280;64701;43.536;1.478;2023-06-05T04:05:01;99395.03;;;18.21;89.06
76011;BME280;64701;43.536;1.478;2023-06-05T04:07:27;99394.53;;;18.24;86.97
76011;BME280;64701;43.536;1.478;2023-06-05T04:09:53;99398.25;;;18.23;87.84
76011;BME280;64701;43.536;1.478;2023-06-05T04:12:18;99403.00;;;18.16;90.04
76011;BME280;64701;43.536;1.478;2023-06-05T04:14:45;99401.38;;;18.15;88.88
76011;BME280;64701;43.536;1.478;2023-06-05T04:17:11;99406.50;;;18.17;87.67
76011;BME280;64701;43.536;1.478;2023-06-05T04:19:37;99405.19;;;18.19;87.02
76011;BME280;64701;43.536;1.478;2023-06-05T04:22:02;99406.81;;;18.20;87.22
76011;BME280;64701;43.536;1.478;2023-06-05T04:24:28;99403.88;;;18.22;86.69
76011;BME280;64701;43.536;1.478;2023-06-05T04:26:54;99404.19;;;18.25;86.31
76011;BME280;64701;43.536;1.478;2023-06-05T04:29:20;99408.97;;;18.23;86.96
76011;BME280;64701;43.536;1.478;2023-06-05T04:31:45;99406.88;;;18.25;86.82
76011;BME280;64701;43.536;1.478;2023-06-05T04:34:12;99414.91;;;18.25;86.06
76011;BME280;64701;43.536;1.478;2023-06-05T04:36:37;99412.00;;;18.27;86.00
76011;BME280;64701;43.536;1.478;2023-06-05T04:39:03;99410.13;;;18.27;85.79
76011;BME280;64701;43.536;1.478;2023-06-05T04:41:32;99415.97;;;18.24;87.98
76011;BME280;64701;43.536;1.478;2023-06-05T04:43:58;99425.88;;;18.24;87.33
76011;BME280;64701;43.536;1.478;2023-06-05T04:46:25;99420.78;;;18.22;86.88
76011;BME280;64701;43.536;1.478;2023-06-05T04:48:51;99429.94;;;18.26;86.26
76011;BME280;64701;43.536;1.478;2023-06-05T04:51:23;99431.59;;;18.27;86.31
76011;BME280;64701;43.536;1.478;2023-06-05T04:53:48;99428.41;;;18.30;85.91
76011;BME280;64701;43.536;1.478;2023-06-05T04:56:18;99423.63;;;18.32;85.17
76011;BME280;64701;43.536;1.478;2023-06-05T04:58:43;99426.88;;;18.34;85.76
76011;BME280;64701;43.536;1.478;2023-06-05T05:01:08;99431.16;;;18.35;85.34
76011;BME280;64701;43.536;1.478;2023-06-05T05:03:34;99437.09;;;18.38;84.92
76011;BME280;64701;43.536;1.478;2023-06-05T05:06:00;99436.50;;;18.35;87.58
76011;BME280;64701;43.536;1.478;2023-06-05T05:08:26;99437.03;;;18.32;87.48
76011;BME280;64701;43.536;1.478;2023-06-05T05:10:52;99437.59;;;18.34;86.28
76011;BME280;64701;43.536;1.478;2023-06-05T05:13:18;99431.72;;;18.38;85.60
76011;BME280;64701;43.536;1.478;2023-06-05T05:15:44;99432.03;;;18.41;85.03
76011;BME280;64701;43.536;1.478;2023-06-05T05:18:10;99440.34;;;18.40;87.03
76011;BME280;64701;43.536;1.478;2023-06-05T05:20:35;99442.97;;;18.34;88.27
76011;BME280;64701;43.536;1.478;2023-06-05T05:23:01;99449.59;;;18.32;88.36
76011;BME280;64701;43.536;1.478;2023-06-05T05:25:26;99449.59;;;18.32;87.42
76011;BME280;64701;43.536;1.478;2023-06-05T05:27:51;99451.47;;;18.31;88.10
76011;BME280;64701;43.536;1.478;2023-06-05T05:30:16;99445.53;;;18.29;88.72
76011;BME280;64701;43.536;1.478;2023-06-05T05:32:42;99441.56;;;18.32;88.44
76011;BME280;64701;43.536;1.478;2023-06-05T05:35:07;99438.88;;;18.32;88.04
76011;BME280;64701;43.536;1.478;2023-06-05T05:37:33;99435.97;;;18.33;88.16
76011;BME280;64701;43.536;1.478;2023-06-05T05:45:08;99436.94;;;18.44;87.23
76011;BME280;64701;43.536;1.478;2023-06-05T05:47:34;99431.88;;;18.48;86.28
76011;BME280;64701;43.536;1.478;2023-06-05T05:49:59;99427.69;;;18.52;85.68
76011;BME280;64701;43.536;1.478;2023-06-05T05:52:25;99433.13;;;18.57;85.42
76011;BME280;64701;43.536;1.478;2023-06-05T05:54:50;99437.44;;;18.58;85.81
76011;BME280;64701;43.536;1.478;2023-06-05T05:57:17;99436.94;;;18.61;85.87
76011;BME280;64701;43.536;1.478;2023-06-05T05:59:42;99446.38;;;18.63;85.33
76011;BME280;64701;43.536;1.478;2023-06-05T06:02:09;99442.13;;;18.67;85.77
76011;BME280;64701;43.536;1.478;2023-06-05T06:04:35;99442.13;;;18.67;86.55
76011;BME280;64701;43.536;1.478;2023-06-05T06:07:00;99443.25;;;18.71;86.33
76011;BME280;64701;43.536;1.478;2023-06-05T06:09:26;99439.88;;;18.76;85.89
76011;BME280;64701;43.536;1.478;2023-06-05T06:11:51;99448.72;;;18.77;87.41
76011;BME280;64701;43.536;1.478;2023-06-05T06:14:20;99441.72;;;18.75;87.20
76011;BME280;64701;43.536;1.478;2023-06-05T06:16:46;99443.59;;;18.75;86.96
76011;BME280;64701;43.536;1.478;2023-06-05T06:19:11;99443.91;;;18.79;86.58
76011;BME280;64701;43.536;1.478;2023-06-05T06:21:40;99441.28;;;18.84;86.96
76011;BME280;64701;43.536;1.478;2023-06-05T06:24:06;99443.25;;;18.88;86.77
76011;BME280;64701;43.536;1.478;2023-06-05T06:26:31;99435.28;;;18.93;85.80
76011;BME280;64701;43.536;1.478;2023-06-05T06:28:56;99445.50;;;18.96;85.84
76011;BME280;64701;43.536;1.478;2023-06-05T06:31:24;99444.19;;;18.99;85.06
76011;BME280;64701;43.536;1.478;2023-06-05T06:33:51;99440.28;;;19.06;84.51
76011;BME280;64701;43.536;1.478;2023-06-05T06:36:17;99445.13;;;19.09;84.07
76011;BME280;64701;43.536;1.478;2023-06-05T06:38:43;99442.69;;;19.08;84.51
76011;BME280;64701;43.536;1.478;2023-06-05T06:41:08;99443.50;;;19.08;85.07
76011;BME280;64701;43.536;1.478;2023-06-05T06:43:33;99451.16;;;19.16;84.02
76011;BME280;64701;43.536;1.478;2023-06-05T06:45:58;99444.25;;;19.26;83.64
76011;BME280;64701;43.536;1.478;2023-06-05T06:48:25;99446.22;;;19.30;84.07
76011;BME280;64701;43.536;1.478;2023-06-05T06:50:50;99446.53;;;19.34;82.84
76011;BME280;64701;43.536;1.478;2023-06-05T06:53:16;99452.94;;;19.33;82.71
76011;BME280;64701;43.536;1.478;2023-06-05T06:55:42;99451.72;;;19.40;82.08
76011;BME280;64701;43.536;1.478;2023-06-05T06:58:07;99449.84;;;19.41;82.43
76011;BME280;64701;43.536;1.478;2023-06-05T07:00:32;99448.50;;;19.43;83.11
76011;BME280;64701;43.536;1.478;2023-06-05T07:02:58;99453.97;;;19.48;82.15
76011;BME280;64701;43.536;1.478;2023-06-05T07:05:24;99458.31;;;19.54;82.34
76011;BME280;64701;43.536;1.478;2023-06-05T07:07:49;99449.84;;;19.63;83.25
76011;BME280;64701;43.536;1.478;2023-06-05T07:10:14;99440.53;;;19.70;82.78
76011;BME280;64701;43.536;1.478;2023-06-05T07:12:40;99448.63;;;19.75;82.30
76011;BME280;64701;43.536;1.478;2023-06-05T07:15:05;99445.94;;;19.75;81.12
76011;BME280;64701;43.536;1.478;2023-06-05T07:17:31;99448.47;;;19.87;81.29
76011;BME280;64701;43.536;1.478;2023-06-05T07:19:57;99454.72;;;19.92;81.03
76011;BME280;64701;43.536;1.478;2023-06-05T07:22:22;99460.19;;;20.03;80.75
76011;BME280;64701;43.536;1.478;2023-06-05T07:24:49;99450.84;;;20.10;80.43
76011;BME280;64701;43.536;1.478;2023-06-05T07:27:15;99453.56;;;20.15;80.64
76011;BME280;64701;43.536;1.478;2023-06-05T07:29:41;99451.25;;;20.24;79.61
76011;BME280;64701;43.536;1.478;2023-06-05T07:32:06;99453.72;;;20.30;79.95
76011;BME280;64701;43.536;1.478;2023-06-05T07:34:32;99456.22;;;20.37;79.64
76011;BME280;64701;43.536;1.478;2023-06-05T07:36:58;99450.34;;;20.45;79.68
76011;BME280;64701;43.536;1.478;2023-06-05T07:39:24;99446.94;;;20.55;80.62
76011;BME280;64701;43.536;1.478;2023-06-05T07:41:49;99443.41;;;20.49;79.37
76011;BME280;64701;43.536;1.478;2023-06-05T07:44:15;99449.69;;;20.60;79.52
76011;BME280;64701;43.536;1.478;2023-06-05T07:46:41;99448.91;;;20.69;78.89
76011;BME280;64701;43.536;1.478;2023-06-05T07:49:07;99447.63;;;20.77;78.83
76011;BME280;64701;43.536;1.478;2023-06-05T07:51:32;99446.84;;;20.82;78.33
76011;BME280;64701;43.536;1.478;2023-06-05T07:54:01;99446.91;;;20.92;78.56
76011;BME280;64701;43.536;1.478;2023-06-05T07:56:27;99443.16;;;20.98;78.44
76011;BME280;64701;43.536;1.478;2023-06-05T07:58:53;99448.28;;;20.99;78.13
76011;BME280;64701;43.536;1.478;2023-06-05T08:01:18;99438.66;;;21.08;77.81
76011;BME280;64701;43.536;1.478;2023-06-05T08:03:45;99447.31;;;21.15;77.00
76011;BME280;64701;43.536;1.478;2023-06-05T08:06:11;99434.09;;;21.14;77.15
76011;BME280;64701;43.536;1.478;2023-06-05T08:08:36;99430.41;;;21.20;77.35
76011;BME280;64701;43.536;1.478;2023-06-05T08:11:01;99425.53;;;21.22;76.85
76011;BME280;64701;43.536;1.478;2023-06-05T08:13:27;99422.59;;;21.24;76.04
76011;BME280;64701;43.536;1.478;2023-06-05T08:15:52;99425.56;;;21.27;76.65
76011;BME280;64701;43.536;1.478;2023-06-05T08:18:17;99429.06;;;21.28;76.42
76011;BME280;64701;43.536;1.478;2023-06-05T08:20:43;99427.75;;;21.35;75.84
76011;BME280;64701;43.536;1.478;2023-06-05T08:23:08;99428.31;;;21.37;76.19
76011;BME280;64701;43.536;1.478;2023-06-05T08:25:33;99432.91;;;21.47;76.64
76011;BME280;64701;43.536;1.478;2023-06-05T08:27:58;99423.75;;;21.48;75.62
76011;BME280;64701;43.536;1.478;2023-06-05T08:30:24;99428.34;;;21.52;75.29
76011;BME280;64701;43.536;1.478;2023-06-05T08:32:49;99425.13;;;21.55;75.26
76011;BME280;64701;43.536;1.478;2023-06-05T08:35:14;99417.06;;;21.61;74.80
76011;BME280;64701;43.536;1.478;2023-06-05T08:37:40;99425.16;;;21.66;76.03
76011;BME280;64701;43.536;1.478;2023-06-05T08:40:05;99426.78;;;21.72;74.74
76011;BME280;64701;43.536;1.478;2023-06-05T08:42:32;99428.66;;;21.76;73.58
76011;BME280;64701;43.536;1.478;2023-06-05T08:44:58;99421.66;;;21.70;75.08
76011;BME280;64701;43.536;1.478;2023-06-05T08:47:23;99426.78;;;21.82;74.35
76011;BME280;64701;43.536;1.478;2023-06-05T08:49:52;99427.34;;;21.74;72.53
76011;BME280;64701;43.536;1.478;2023-06-05T08:52:19;99432.72;;;21.84;73.20
76011;BME280;64701;43.536;1.478;2023-06-05T08:54:45;99431.41;;;21.91;73.67
76011;BME280;64701;43.536;1.478;2023-06-05T08:57:11;99424.16;;;22.02;74.28
76011;BME280;64701;43.536;1.478;2023-06-05T08:59:36;99426.03;;;22.12;73.17
76011;BME280;64701;43.536;1.478;2023-06-05T09:02:01;99418.25;;;22.10;72.00
76011;BME280;64701;43.536;1.478;2023-06-05T09:04:27;99415.53;;;22.20;72.59
76011;BME280;64701;43.536;1.478;2023-06-05T09:06:58;99414.47;;;22.26;72.10
76011;BME280;64701;43.536;1.478;2023-06-05T09:09:24;99418.22;;;22.35;72.56
76011;BME280;64701;43.536;1.478;2023-06-05T09:14:27;99407.97;;;22.43;71.93
76011;BME280;64701;43.536;1.478;2023-06-05T09:16:53;99406.88;;;22.49;70.23
76011;BME280;64701;43.536;1.478;2023-06-05T09:19:18;99407.69;;;22.54;69.80
76011;BME280;64701;43.536;1.478;2023-06-05T09:21:54;99408.75;;;22.63;71.15
76011;BME280;64701;43.536;1.478;2023-06-05T09:24:20;99407.94;;;22.63;68.69
76011;BME280;64701;43.536;1.478;2023-06-05T09:31:53;99411.19;;;22.70;67.06
76011;BME280;64701;43.536;1.478;2023-06-05T09:34:26;99409.56;;;22.79;67.66
76011;BME280;64701;43.536;1.478;2023-06-05T09:36:52;99408.19;;;22.76;66.75
76011;BME280;64701;43.536;1.478;2023-06-05T09:39:19;99403.31;;;22.84;66.14
76011;BME280;64701;43.536;1.478;2023-06-05T09:41:46;99406.28;;;22.82;66.70
76011;BME280;64701;43.536;1.478;2023-06-05T09:44:13;99404.66;;;22.91;68.32
76011;BME280;64701;43.536;1.478;2023-06-05T09:46:55;99408.41;;;23.05;69.80
76011;BME280;64701;43.536;1.478;2023-06-05T09:49:23;99399.16;;;23.16;67.91
76011;BME280;64701;43.536;1.478;2023-06-05T09:51:48;99397.75;;;23.29;68.56
76011;BME280;64701;43.536;1.478;2023-06-05T09:54:14;99407.44;;;23.40;68.54
76011;BME280;64701;43.536;1.478;2023-06-05T09:56:40;99403.63;;;23.51;67.84
76011;BME280;64701;43.536;1.478;2023-06-05T09:59:08;99400.88;;;23.56;65.46
76011;BME280;64701;43.536;1.478;2023-06-05T10:01:35;99401.66;;;23.62;65.28
76011;BME280;64701;43.536;1.478;2023-06-05T10:04:02;99400.00;;;23.71;66.10
76011;BME280;64701;43.536;1.478;2023-06-05T10:06:30;99398.81;;;23.82;65.62
76011;BME280;64701;43.536;1.478;2023-06-05T10:08:57;99397.94;;;23.92;64.16
76011;BME280;64701;43.536;1.478;2023-06-05T10:11:23;99400.28;;;24.04;63.81
76011;BME280;64701;43.536;1.478;2023-06-05T10:13:49;99390.47;;;24.13;62.23
76011;BME280;64701;43.536;1.478;2023-06-05T10:16:15;99397.16;;;24.25;64.78
76011;BME280;64701;43.536;1.478;2023-06-05T10:18:41;99397.88;;;24.36;63.95
76011;BME280;64701;43.536;1.478;2023-06-05T10:21:06;99391.78;;;24.49;64.12
76011;BME280;64701;43.536;1.478;2023-06-05T10:23:32;99387.91;;;24.60;62.65
76011;BME280;64701;43.536;1.478;2023-06-05T10:25:58;99384.59;;;24.63;60.92
76011;BME280;64701;43.536;1.478;2023-06-05T10:39:23;99379.59;;;25.23;59.68
76011;BME280;64701;43.536;1.478;2023-06-05T10:41:50;99382.13;;;25.38;60.42
76011;BME280;64701;43.536;1.478;2023-06-05T10:44:16;99378.91;;;25.55;60.70
76011;BME280;64701;43.536;1.478;2023-06-05T10:46:41;99378.47;;;25.67;59.98
76011;BME280;64701;43.536;1.478;2023-06-05T10:51:41;99371.41;;;26.03;60.84
76011;BME280;64701;43.536;1.478;2023-06-05T10:54:11;99368.50;;;26.13;59.49
76011;BME280;64701;43.536;1.478;2023-06-05T10:59:18;99359.53;;;26.31;57.69
76011;BME280;64701;43.536;1.478;2023-06-05T11:02:21;99362.56;;;26.44;56.56
76011;BME280;64701;43.536;1.478;2023-06-05T11:12:26;99356.88;;;26.86;53.67
76011;BME280;64701;43.536;1.478;2023-06-05T11:14:51;99349.94;;;26.94;53.11
76011;BME280;64701;43.536;1.478;2023-06-05T11:17:29;99350.41;;;26.82;50.53
76011;BME280;64701;43.536;1.478;2023-06-05T11:19:55;99345.41;;;26.89;54.34
76011;BME280;64701;43.536;1.478;2023-06-05T11:22:20;99346.81;;;27.00;54.05
76011;BME280;64701;43.536;1.478;2023-06-05T11:24:46;99340.56;;;27.13;53.11
76011;BME280;64701;43.536;1.478;2023-06-05T11:27:44;99341.75;;;27.21;52.34
76011;BME280;64701;43.536;1.478;2023-06-05T11:30:13;99343.03;;;27.23;51.50
76011;BME280;64701;43.536;1.478;2023-06-05T11:32:39;99341.78;;;27.43;51.38
76011;BME280;64701;43.536;1.478;2023-06-05T11:35:05;99327.19;;;27.53;50.60
76011;BME280;64701;43.536;1.478;2023-06-05T11:37:30;99323.69;;;27.52;49.91
76011;BME280;64701;43.536;1.478;2023-06-05T11:39:58;99319.53;;;27.55;48.63
76011;BME280;64701;43.536;1.478;2023-06-05T11:42:23;99318.81;;;27.49;48.96
76011;BME280;64701;43.536;1.478;2023-06-05T11:44:48;99322.34;;;27.50;47.97
76011;BME280;64701;43.536;1.478;2023-06-05T11:47:32;99315.44;;;27.66;51.25
76011;BME280;64701;43.536;1.478;2023-06-05T11:50:11;99312.97;;;27.78;53.95
76011;BME280;64701;43.536;1.478;2023-06-05T11:52:37;99313.47;;;27.80;50.99
76011;BME280;64701;43.536;1.478;2023-06-05T11:57:43;99297.00;;;27.85;49.96
76011;BME280;64701;43.536;1.478;2023-06-05T12:00:11;99292.53;;;27.89;48.98
76011;BME280;64701;43.536;1.478;2023-06-05T12:02:37;99294.41;;;28.02;51.92
76011;BME280;64701;43.536;1.478;2023-06-05T12:05:05;99283.88;;;28.10;50.96
76011;BME280;64701;43.536;1.478;2023-06-05T12:07:31;99279.22;;;28.10;48.62
76011;BME280;64701;43.536;1.478;2023-06-05T12:10:01;99281.53;;;28.17;48.36
76011;BME280;64701;43.536;1.478;2023-06-05T12:12:28;99269.41;;;28.23;49.03
76011;BME280;64701;43.536;1.478;2023-06-05T12:14:53;99267.63;;;28.18;45.89
76011;BME280;64701;43.536;1.478;2023-06-05T12:17:21;99271.81;;;28.24;47.41
76011;BME280;64701;43.536;1.478;2023-06-05T12:19:53;99256.25;;;28.25;48.24
76011;BME280;64701;43.536;1.478;2023-06-05T12:22:18;99265.06;;;28.30;49.31
76011;BME280;64701;43.536;1.478;2023-06-05T12:24:44;99258.84;;;28.30;45.10
76011;BME280;64701;43.536;1.478;2023-06-05T12:27:09;99256.00;;;28.35;48.54
76011;BME280;64701;43.536;1.478;2023-06-05T12:29:35;99249.75;;;28.43;50.30
76011;BME280;64701;43.536;1.478;2023-06-05T12:32:03;99252.59;;;28.29;47.95
76011;BME280;64701;43.536;1.478;2023-06-05T12:34:47;99248.22;;;28.20;49.97
76011;BME280;64701;43.536;1.478;2023-06-05T12:37:48;99240.25;;;28.32;48.61
76011;BME280;64701;43.536;1.478;2023-06-05T12:40:10;99229.72;;;28.39;46.65
76011;BME280;64701;43.536;1.478;2023-06-05T12:42:36;99222.22;;;28.53;48.87
76011;BME280;64701;43.536;1.478;2023-06-05T12:45:02;99221.91;;;28.55;47.46
76011;BME280;64701;43.536;1.478;2023-06-05T12:47:27;99216.50;;;28.72;46.96
76011;BME280;64701;43.536;1.478;2023-06-05T12:49:52;99212.03;;;28.76;43.75
76011;BME280;64701;43.536;1.478;2023-06-05T12:52:18;99206.59;;;28.76;45.52
76011;BME280;64701;43.536;1.478;2023-06-05T12:54:43;99207.19;;;28.64;45.44
76011;BME280;64701;43.536;1.478;2023-06-05T12:57:09;99212.31;;;28.57;47.47
76011;BME280;64701;43.536;1.478;2023-06-05T12:59:34;99200.28;;;28.58;48.19
76011;BME280;64701;43.536;1.478;2023-06-05T13:02:00;99212.31;;;28.57;50.06
76011;BME280;64701;43.536;1.478;2023-06-05T13:04:25;99211.66;;;28.60;48.63
76011;BME280;64701;43.536;1.478;2023-06-05T13:06:51;99208.66;;;28.70;48.51
76011;BME280;64701;43.536;1.478;2023-06-05T13:09:19;99213.66;;;28.77;48.40
76011;BME280;64701;43.536;1.478;2023-06-05T13:11:44;99207.53;;;28.71;47.42
76011;BME280;64701;43.536;1.478;2023-06-05T13:14:10;99216.50;;;28.72;46.32
76011;BME280;64701;43.536;1.478;2023-06-05T13:16:35;99214.28;;;28.74;48.21
76011;BME280;64701;43.536;1.478;2023-06-05T13:19:00;99208.81;;;28.65;47.70
76011;BME280;64701;43.536;1.478;2023-06-05T13:21:26;99203.97;;;28.54;46.68
76011;BME280;64701;43.536;1.478;2023-06-05T13:23:51;99210.69;;;28.56;48.96
76011;BME280;64701;43.536;1.478;2023-06-05T13:26:16;99206.84;;;28.57;47.77
76011;BME280;64701;43.536;1.478;2023-06-05T13:28:42;99215.59;;;28.37;45.92
76011;BME280;64701;43.536;1.478;2023-06-05T13:31:10;99205.53;;;28.46;47.15
76011;BME280;64701;43.536;1.478;2023-06-05T13:33:36;99207.44;;;28.37;46.95
76011;BME280;64701;43.536;1.478;2023-06-05T13:36:01;99201.88;;;28.42;46.21
76011;BME280;64701;43.536;1.478;2023-06-05T13:38:26;99199.94;;;28.51;46.77